Terminal Aerodrome Forecast
Issued by NWS Hastings, NE

Home | Current Version | Previous Version | Text Only | Print | Product List | Glossary On
Versions: 1 2 3 4 5 6 7 8 9 10 11 12 13 14 15 16 17 18 19 20 21 22 23 24 25 26 27 28 29 30 31 32 33 34 35 36 37 38 39 40 41 42 43 44 45 46 47
000
FTUS43 KGID 021227 AAB
TAFGRI
TAF AMD
KGRI 021227Z 0212/0312 VRB06KT 2SM BR VCTS OVC005CB
      TEMPO 0212/0214 1SM -TSRA BR BKN003CB
     FM021400 VRB06KT 4SM BR VCTS OVC005CB
     FM021700 VRB06KT P6SM BKN025
     FM022200 02008KT P6SM BKN040
     FM030100 34008KT P6SM BKN100=

USA.gov is the U.S. government's official web portal to all federal, state and local government web resources and services.